createdAt,value
2023-03-27T00:01:01.149Z,100.00
2023-03-27T00:02:02.452Z,100.00
2023-03-27T00:03:03.821Z,100.00
2023-03-27T00:04:05.131Z,100.00
2023-03-27T00:05:06.441Z,100.00
2023-03-27T00:06:12.258Z,100.00
2023-03-27T00:07:13.543Z,100.00
2023-03-27T00:08:14.757Z,100.00
2023-03-27T00:09:16.046Z,100.00
2023-03-27T00:10:17.352Z,100.00
2023-03-27T00:11:19.735Z,100.00
2023-03-27T00:12:20.991Z,100.00
2023-03-27T00:13:22.185Z,100.00
2023-03-27T00:14:23.402Z,100.00
2023-03-27T00:15:24.730Z,100.00
2023-03-27T00:16:27.146Z,100.00
2023-03-27T00:17:28.435Z,100.00
2023-03-27T00:18:29.717Z,100.00
2023-03-27T00:19:30.934Z,100.00
2023-03-27T00:20:33.137Z,100.00
2023-03-27T00:21:34.383Z,100.00
2023-03-27T00:22:35.704Z,100.00
2023-03-27T00:23:36.947Z,100.00
2023-03-27T00:24:38.197Z,100.00
2023-03-27T00:25:39.908Z,100.00
2023-03-27T00:26:41.203Z,100.00
2023-03-27T00:27:43.097Z,100.00
2023-03-27T00:28:44.343Z,100.00
2023-03-27T00:29:45.617Z,100.00
2023-03-27T00:30:47.606Z,100.00
2023-03-27T00:31:48.935Z,100.00
2023-03-27T00:32:50.270Z,100.00
2023-03-27T00:33:51.648Z,100.00
2023-03-27T00:34:52.857Z,100.00
2023-03-27T00:35:54.259Z,100.00
2023-03-27T00:36:55.769Z,100.00
2023-03-27T00:37:57.208Z,100.00
2023-03-27T00:38:58.482Z,100.00
2023-03-27T00:39:59.805Z,100.00
2023-03-27T00:41:01.332Z,100.00
2023-03-27T00:42:02.661Z,100.00
2023-03-27T00:43:24.209Z,100.00
2023-03-27T00:44:27.397Z,100.00
2023-03-27T00:45:31.269Z,100.00
2023-03-27T00:46:38.232Z,100.00
2023-03-27T00:47:39.826Z,100.00
2023-03-27T00:48:43.194Z,100.00
2023-03-27T00:49:44.945Z,100.00
2023-03-27T00:50:47.256Z,100.00
2023-03-27T00:51:48.880Z,100.00
2023-03-27T00:52:52.795Z,100.00
2023-03-27T00:53:54.868Z,100.00
2023-03-27T00:54:58.743Z,100.00
2023-03-27T00:56:02.785Z,100.00
2023-03-27T00:57:05.926Z,100.00
2023-03-27T00:58:09.365Z,100.00
2023-03-27T00:59:15.527Z,100.00
2023-03-27T01:00:16.869Z,100.00
2023-03-27T01:01:19.287Z,100.00
2023-03-27T01:02:21.673Z,100.00
2023-03-27T01:03:25.215Z,100.00
2023-03-27T01:04:26.957Z,100.00
2023-03-27T01:05:29.181Z,100.00
2023-03-27T01:06:31.070Z,100.00
2023-03-27T01:07:32.869Z,100.00
2023-03-27T01:08:35.333Z,100.00
2023-03-27T01:09:36.655Z,100.00
2023-03-27T01:10:52.569Z,100.00
2023-03-27T01:12:04.802Z,100.00
2023-03-27T01:13:20.522Z,100.00
2023-03-27T01:14:27.727Z,100.00
2023-03-27T01:15:29.007Z,100.00
2023-03-27T01:16:36.421Z,100.00
2023-03-27T01:17:49.745Z,100.00
2023-03-27T01:18:58.015Z,100.00
2023-03-27T01:20:02.257Z,100.00
2023-03-27T01:21:15.729Z,100.00
2023-03-27T01:22:29.283Z,100.00
2023-03-27T01:24:00.154Z,100.00
2023-03-27T01:25:07.256Z,100.00
2023-03-27T01:26:15.617Z,100.00
2023-03-27T01:27:21.308Z,100.00
2023-03-27T01:28:35.093Z,100.00
2023-03-27T01:29:41.656Z,100.00
2023-03-27T01:30:47.247Z,100.00
2023-03-27T01:32:08.848Z,100.00
2023-03-27T01:33:25.100Z,100.00
2023-03-27T01:34:41.264Z,100.00
2023-03-27T01:35:58.077Z,100.00
2023-03-27T01:37:07.160Z,100.00
2023-03-27T01:38:08.375Z,100.00
2023-03-27T01:39:39.055Z,100.00
2023-03-27T01:40:49.644Z,100.00
2023-03-27T01:42:09.793Z,100.00
2023-03-27T01:43:13.958Z,100.00
2023-03-27T01:44:15.308Z,100.00
2023-03-27T01:45:22.867Z,100.00
2023-03-27T01:46:26.670Z,100.00
2023-03-27T01:47:41.522Z,100.00
2023-03-27T01:48:56.915Z,100.00
2023-03-27T01:50:07.471Z,100.00
2023-03-27T01:51:12.453Z,100.00
2023-03-27T01:52:19.871Z,100.00
2023-03-27T01:53:24.461Z,100.00
2023-03-27T01:54:33.938Z,100.00
2023-03-27T01:55:38.888Z,100.00
2023-03-27T01:56:44.304Z,100.00
2023-03-27T01:57:50.549Z,100.00
2023-03-27T01:59:00.138Z,100.00
2023-03-27T02:00:17.275Z,100.00
2023-03-27T02:01:28.482Z,100.00
2023-03-27T02:02:31.808Z,100.00
2023-03-27T02:03:33.156Z,100.00
2023-03-27T02:04:40.415Z,100.00
2023-03-27T02:05:41.757Z,100.00
2023-03-27T02:06:46.467Z,100.00
2023-03-27T02:07:50.286Z,100.00
2023-03-27T02:08:54.313Z,100.00
2023-03-27T02:09:58.532Z,100.00
2023-03-27T02:11:00.156Z,100.00
2023-03-27T02:12:11.065Z,100.00
2023-03-27T02:13:17.679Z,100.00
2023-03-27T02:14:21.587Z,100.00
2023-03-27T02:15:26.829Z,100.00
2023-03-27T02:16:33.222Z,100.00
2023-03-27T02:17:40.404Z,100.00
2023-03-27T02:18:45.026Z,100.00
2023-03-27T02:20:02.742Z,100.00
2023-03-27T02:21:04.221Z,100.00
2023-03-27T02:22:06.609Z,100.00
2023-03-27T02:23:18.203Z,100.00
2023-03-27T02:24:19.570Z,100.00
2023-03-27T02:25:22.063Z,100.00
2023-03-27T02:26:23.393Z,100.00
2023-03-27T02:27:38.610Z,100.00
2023-03-27T02:28:39.873Z,100.00
2023-03-27T02:29:48.066Z,100.00
2023-03-27T02:31:05.527Z,100.00
2023-03-27T02:32:24.020Z,100.00
2023-03-27T02:33:44.074Z,100.00
2023-03-27T02:34:54.640Z,100.00
2023-03-27T02:36:13.008Z,100.00
2023-03-27T02:37:32.266Z,100.00
2023-03-27T02:39:16.074Z,100.00
2023-03-27T02:40:23.086Z,100.00
2023-03-27T02:41:38.333Z,100.00
2023-03-27T02:42:59.187Z,100.00
2023-03-27T02:44:06.276Z,100.00
2023-03-27T02:45:30.518Z,100.00
2023-03-27T02:46:37.047Z,100.00
2023-03-27T02:47:42.828Z,100.00
2023-03-27T02:48:46.094Z,100.00
2023-03-27T02:49:52.181Z,100.00
2023-03-27T02:50:56.455Z,100.00
2023-03-27T02:52:01.629Z,100.00
2023-03-27T02:53:04.995Z,100.00
2023-03-27T02:54:11.840Z,100.00
2023-03-27T02:55:21.173Z,100.00
2023-03-27T02:56:24.309Z,100.00
2023-03-27T02:57:27.772Z,100.00
2023-03-27T02:58:54.770Z,100.00
2023-03-27T03:00:07.332Z,100.00
2023-03-27T03:01:14.944Z,100.00
2023-03-27T03:02:39.909Z,100.00
2023-03-27T03:03:41.251Z,100.00
2023-03-27T03:05:08.873Z,100.00
2023-03-27T03:06:12.900Z,100.00
2023-03-27T03:07:14.603Z,100.00
2023-03-27T03:08:16.418Z,100.00
2023-03-27T03:09:17.731Z,100.00
2023-03-27T03:10:19.017Z,100.00
2023-03-27T03:11:21.607Z,100.00
2023-03-27T03:12:22.837Z,100.00
2023-03-27T03:13:24.229Z,100.00
2023-03-27T03:14:27.925Z,100.00
2023-03-27T03:15:29.731Z,100.00
2023-03-27T03:16:31.337Z,100.00
2023-03-27T03:17:32.643Z,100.00
2023-03-27T03:18:34.055Z,100.00
2023-03-27T03:19:35.429Z,100.00
2023-03-27T03:20:36.721Z,100.00
2023-03-27T03:21:39.300Z,100.00
2023-03-27T03:22:45.121Z,100.00
2023-03-27T03:23:58.274Z,100.00
2023-03-27T03:25:01.703Z,100.00
2023-03-27T03:26:03.735Z,100.00
2023-03-27T03:27:16.577Z,100.00
2023-03-27T03:28:24.290Z,100.00
2023-03-27T03:29:25.782Z,100.00
2023-03-27T03:30:41.697Z,100.00
2023-03-27T03:31:45.987Z,100.00
2023-03-27T03:32:47.501Z,100.00
2023-03-27T03:33:48.869Z,100.00
2023-03-27T03:34:50.174Z,100.00
2023-03-27T03:35:51.669Z,100.00
2023-03-27T03:37:02.461Z,100.00
2023-03-27T03:38:05.676Z,100.00
2023-03-27T03:39:17.742Z,100.00
2023-03-27T03:40:22.025Z,100.00
2023-03-27T03:41:25.726Z,100.00
2023-03-27T03:42:27.076Z,100.00
2023-03-27T03:43:29.301Z,100.00
2023-03-27T03:44:30.757Z,100.00
2023-03-27T03:45:34.655Z,100.00
2023-03-27T03:46:35.994Z,100.00
2023-03-27T03:47:37.367Z,100.00
2023-03-27T03:48:38.764Z,100.00
2023-03-27T03:49:40.009Z,100.00
2023-03-27T03:50:42.004Z,100.00
2023-03-27T03:51:43.224Z,100.00
2023-03-27T03:52:45.079Z,100.00
2023-03-27T03:53:46.366Z,100.00
2023-03-27T03:54:47.724Z,100.00
2023-03-27T03:55:50.311Z,100.00
2023-03-27T03:56:51.598Z,100.00
2023-03-27T03:57:52.881Z,100.00
2023-03-27T03:58:59.532Z,100.00
2023-03-27T04:00:01.328Z,100.00
2023-03-27T04:01:23.483Z,100.00
2023-03-27T04:02:31.514Z,100.00
2023-03-27T04:03:38.520Z,100.00
2023-03-27T04:04:40.111Z,100.00
2023-03-27T04:05:45.401Z,100.00
2023-03-27T04:06:46.656Z,100.00
2023-03-27T04:07:47.936Z,100.00
2023-03-27T04:08:59.069Z,100.00
2023-03-27T04:10:20.598Z,100.00
2023-03-27T04:11:22.703Z,100.00
2023-03-27T04:12:49.465Z,100.00
2023-03-27T04:13:58.573Z,100.00
2023-03-27T04:15:11.127Z,100.00
2023-03-27T04:16:35.662Z,100.00
2023-03-27T04:17:44.558Z,100.00
2023-03-27T04:18:46.050Z,100.00
2023-03-27T04:19:53.207Z,100.00
2023-03-27T04:20:55.249Z,100.00
2023-03-27T04:21:58.839Z,100.00
2023-03-27T04:23:04.112Z,100.00
2023-03-27T04:24:09.925Z,100.00
2023-03-27T04:25:29.354Z,100.00
2023-03-27T04:26:31.159Z,100.00
2023-03-27T04:27:58.052Z,99.91
2023-03-27T04:29:06.805Z,99.59
2023-03-27T04:30:26.497Z,99.70
2023-03-27T04:31:57.113Z,99.48
2023-03-27T04:33:16.208Z,100.00
2023-03-27T04:34:32.311Z,99.55
2023-03-27T04:36:09.241Z,99.00
2023-03-27T04:37:23.616Z,99.69
2023-03-27T04:38:38.888Z,99.85
2023-03-27T04:39:40.266Z,99.78
2023-03-27T04:40:41.692Z,100.00
2023-03-27T04:41:43.836Z,99.27
2023-03-27T04:42:45.279Z,99.57
2023-03-27T04:43:47.022Z,100.00
2023-03-27T04:44:48.228Z,100.00
2023-03-27T04:45:49.561Z,100.00
2023-03-27T04:46:51.696Z,100.00
2023-03-27T04:47:53.177Z,100.00
2023-03-27T04:48:54.603Z,99.67
2023-03-27T04:50:11.193Z,97.47
2023-03-27T04:51:12.438Z,98.10
2023-03-27T04:52:13.721Z,98.08
2023-03-27T04:53:18.469Z,98.01
2023-03-27T04:54:22.215Z,98.61
2023-03-27T04:55:23.472Z,97.11
2023-03-27T04:56:24.724Z,97.31
2023-03-27T04:57:29.061Z,98.46
2023-03-27T04:58:34.480Z,97.40
2023-03-27T04:59:42.218Z,97.34
2023-03-27T05:01:06.818Z,96.30
2023-03-27T05:02:45.265Z,96.07
2023-03-27T05:03:52.252Z,96.68
2023-03-27T05:05:07.457Z,94.83
2023-03-27T05:06:10.993Z,94.53
2023-03-27T05:07:12.566Z,93.91
2023-03-27T05:08:13.792Z,93.32
2023-03-27T05:09:16.804Z,94.26
2023-03-27T05:10:21.775Z,94.33
2023-03-27T05:11:24.839Z,93.85
2023-03-27T05:12:26.184Z,94.02
2023-03-27T05:13:31.536Z,95.70
2023-03-27T05:14:33.201Z,96.63
2023-03-27T05:15:34.788Z,96.98
2023-03-27T05:16:38.199Z,95.12
2023-03-27T05:17:41.588Z,94.64
2023-03-27T05:18:43.902Z,93.89
2023-03-27T05:19:45.924Z,94.69
2023-03-27T05:20:47.198Z,94.44
2023-03-27T05:21:48.598Z,94.55
2023-03-27T05:22:52.851Z,95.02
2023-03-27T05:24:01.137Z,95.09
2023-03-27T05:25:02.479Z,94.66
2023-03-27T05:26:03.864Z,94.55
2023-03-27T05:27:22.905Z,94.71
2023-03-27T05:28:28.876Z,92.49
2023-03-27T05:29:30.346Z,93.44
2023-03-27T05:30:48.515Z,94.03
2023-03-27T05:31:51.343Z,92.14
2023-03-27T05:33:21.677Z,93.61
2023-03-27T05:34:23.059Z,94.29
2023-03-27T05:35:27.937Z,93.29
2023-03-27T05:36:29.816Z,93.11
2023-03-27T05:37:32.102Z,93.60
2023-03-27T05:38:50.607Z,93.27
2023-03-27T05:40:10.424Z,94.04
2023-03-27T05:41:12.211Z,93.99
2023-03-27T05:42:17.906Z,94.45
2023-03-27T05:43:19.562Z,92.33
2023-03-27T05:44:20.993Z,92.48
2023-03-27T05:45:22.539Z,92.40
2023-03-27T05:46:24.057Z,92.05
2023-03-27T05:47:43.115Z,91.36
2023-03-27T05:48:44.403Z,91.29
2023-03-27T05:49:45.685Z,91.88
2023-03-27T05:50:47.310Z,92.46
2023-03-27T05:51:55.464Z,90.33
2023-03-27T05:53:01.390Z,91.21
2023-03-27T05:54:15.157Z,90.21
2023-03-27T05:55:27.716Z,89.95
2023-03-27T05:56:30.223Z,89.90
2023-03-27T05:57:37.706Z,91.51
2023-03-27T05:58:39.029Z,92.00
2023-03-27T05:59:40.310Z,90.94
2023-03-27T06:00:51.004Z,91.23
2023-03-27T06:01:54.771Z,91.21
2023-03-27T06:03:01.585Z,90.35
2023-03-27T06:04:22.991Z,90.37
2023-03-27T06:05:31.970Z,89.47
2023-03-27T06:06:35.514Z,87.56
2023-03-27T06:07:37.495Z,87.64
2023-03-27T06:08:40.983Z,88.74
2023-03-27T06:09:43.304Z,88.85
2023-03-27T06:11:10.559Z,86.60
2023-03-27T06:12:18.248Z,87.83
2023-03-27T06:13:20.694Z,88.03
2023-03-27T06:14:26.855Z,88.39
2023-03-27T06:15:47.145Z,88.08
2023-03-27T06:16:53.511Z,88.37
2023-03-27T06:18:14.980Z,86.32
2023-03-27T06:19:16.227Z,87.07
2023-03-27T06:20:23.727Z,88.08
2023-03-27T06:21:27.230Z,88.35
2023-03-27T06:22:33.365Z,86.84
2023-03-27T06:23:38.222Z,86.71
2023-03-27T06:24:45.049Z,86.39
2023-03-27T06:25:48.661Z,84.98
2023-03-27T06:26:50.076Z,85.37
2023-03-27T06:27:51.434Z,86.23
2023-03-27T06:28:52.884Z,85.83
2023-03-27T06:29:54.322Z,84.88
2023-03-27T06:30:55.591Z,85.24
2023-03-27T06:32:03.689Z,86.82
2023-03-27T06:33:13.261Z,85.41
2023-03-27T06:34:14.617Z,85.11
2023-03-27T06:35:21.481Z,84.52
2023-03-27T06:36:28.700Z,84.21
2023-03-27T06:37:30.154Z,84.79
2023-03-27T06:38:31.524Z,84.58
2023-03-27T06:39:32.833Z,85.25
2023-03-27T06:40:34.088Z,86.86
2023-03-27T06:41:35.356Z,85.63
2023-03-27T06:42:39.442Z,86.07
2023-03-27T06:43:57.562Z,86.02
2023-03-27T06:45:10.438Z,85.44
2023-03-27T06:46:45.545Z,86.34
2023-03-27T06:48:12.188Z,85.46
2023-03-27T06:49:21.528Z,84.76
2023-03-27T06:50:24.329Z,85.47
2023-03-27T06:51:26.623Z,85.38
2023-03-27T06:52:27.982Z,84.76
2023-03-27T06:53:40.043Z,85.17
2023-03-27T06:54:41.646Z,83.93
2023-03-27T06:55:43.767Z,83.61
2023-03-27T06:56:46.393Z,84.98
2023-03-27T06:57:53.739Z,85.34
2023-03-27T06:58:55.101Z,84.36
2023-03-27T07:00:02.745Z,83.76
2023-03-27T07:01:24.059Z,84.53
2023-03-27T07:02:40.386Z,81.41
2023-03-27T07:04:00.129Z,81.29
2023-03-27T07:05:20.112Z,81.76
2023-03-27T07:06:21.443Z,82.25
2023-03-27T07:07:35.029Z,82.66
2023-03-27T07:08:36.759Z,81.01
2023-03-27T07:09:40.045Z,82.53
2023-03-27T07:10:42.761Z,82.24
2023-03-27T07:11:43.950Z,81.50
2023-03-27T07:12:45.968Z,80.06
2023-03-27T07:13:49.613Z,79.62
2023-03-27T07:14:57.447Z,79.85
2023-03-27T07:16:01.786Z,78.27
2023-03-27T07:17:09.214Z,78.71
2023-03-27T07:18:29.598Z,79.10
2023-03-27T07:19:31.048Z,79.58
2023-03-27T07:20:39.863Z,77.83
2023-03-27T07:21:46.159Z,78.04
2023-03-27T07:22:47.849Z,78.36
2023-03-27T07:24:14.038Z,76.04
2023-03-27T07:25:15.304Z,76.53
2023-03-27T07:26:17.918Z,79.31
2023-03-27T07:27:35.204Z,76.20
2023-03-27T07:28:37.890Z,78.65
2023-03-27T07:29:44.180Z,76.37
2023-03-27T07:30:50.835Z,77.19
2023-03-27T07:31:57.859Z,76.84
2023-03-27T07:33:14.020Z,77.70
2023-03-27T07:34:15.822Z,77.57
2023-03-27T07:35:47.422Z,77.27
2023-03-27T07:37:07.189Z,75.77
2023-03-27T07:38:09.678Z,75.04
2023-03-27T07:39:10.946Z,75.61
2023-03-27T07:40:13.396Z,76.48
2023-03-27T07:41:16.502Z,76.24
2023-03-27T07:42:29.966Z,77.39
2023-03-27T07:43:36.348Z,76.76
2023-03-27T07:44:38.078Z,76.65
2023-03-27T07:45:41.462Z,77.72
2023-03-27T07:46:42.879Z,76.88
2023-03-27T07:47:45.258Z,75.61
2023-03-27T07:48:46.841Z,75.08
2023-03-27T07:49:53.309Z,76.61
2023-03-27T07:51:10.694Z,75.23
2023-03-27T07:52:16.372Z,75.33
2023-03-27T07:53:33.949Z,74.52
2023-03-27T07:54:44.913Z,73.62
2023-03-27T07:55:50.412Z,74.29
2023-03-27T07:56:51.663Z,71.24
2023-03-27T07:58:08.190Z,72.58
2023-03-27T07:59:11.678Z,73.49
2023-03-27T08:00:15.051Z,72.53
2023-03-27T08:01:28.112Z,73.13
2023-03-27T08:02:29.397Z,74.91
2023-03-27T08:03:30.915Z,72.83
2023-03-27T08:04:32.536Z,70.75
2023-03-27T08:05:38.593Z,70.03
2023-03-27T08:06:44.670Z,70.16
2023-03-27T08:07:52.291Z,69.69
2023-03-27T08:09:11.559Z,70.19
2023-03-27T08:10:12.904Z,71.16
2023-03-27T08:11:30.789Z,70.94
2023-03-27T08:12:33.511Z,70.29
2023-03-27T08:13:36.033Z,70.10
2023-03-27T08:14:38.248Z,71.68
2023-03-27T08:15:48.985Z,71.26
2023-03-27T08:17:12.461Z,70.62
2023-03-27T08:18:19.305Z,70.17
2023-03-27T08:19:20.747Z,69.43
2023-03-27T08:20:26.191Z,69.48
2023-03-27T08:21:29.925Z,70.16
2023-03-27T08:22:31.239Z,68.85
2023-03-27T08:23:51.266Z,69.42
2023-03-27T08:25:10.980Z,71.37
2023-03-27T08:26:13.584Z,71.30
2023-03-27T08:27:21.319Z,68.54
2023-03-27T08:28:22.594Z,69.56
2023-03-27T08:29:23.916Z,69.25
2023-03-27T08:30:26.002Z,68.23
2023-03-27T08:31:27.554Z,68.57
2023-03-27T08:32:32.639Z,68.11
2023-03-27T08:33:39.725Z,68.54
2023-03-27T08:34:45.636Z,67.97
2023-03-27T08:35:52.549Z,70.03
2023-03-27T08:36:54.397Z,69.49
2023-03-27T08:37:56.848Z,67.29
2023-03-27T08:39:18.043Z,67.29
2023-03-27T08:40:29.305Z,66.63
2023-03-27T08:41:58.616Z,66.30
2023-03-27T08:43:06.404Z,65.50
2023-03-27T08:44:12.731Z,64.63
2023-03-27T08:45:19.420Z,66.70
2023-03-27T08:46:27.583Z,66.62
2023-03-27T08:47:34.053Z,65.71
2023-03-27T08:49:01.064Z,67.24
2023-03-27T08:50:04.410Z,68.35
2023-03-27T08:51:15.892Z,69.22
2023-03-27T08:52:20.011Z,67.16
2023-03-27T08:53:29.377Z,68.02
2023-03-27T08:54:33.169Z,67.74
2023-03-27T08:55:39.597Z,68.22
2023-03-27T08:57:17.596Z,66.06
2023-03-27T08:58:21.400Z,66.53
2023-03-27T08:59:29.034Z,67.09
2023-03-27T09:00:32.611Z,65.93
2023-03-27T09:02:00.000Z,65.19
2023-03-27T09:03:09.344Z,65.21
2023-03-27T09:04:19.794Z,63.83
2023-03-27T09:05:30.410Z,64.59
2023-03-27T09:06:50.599Z,62.87
2023-03-27T09:07:51.992Z,64.93
2023-03-27T09:09:06.391Z,64.67
2023-03-27T09:10:23.811Z,64.04
2023-03-27T09:11:32.341Z,62.72
2023-03-27T09:12:42.899Z,62.96
2023-03-27T09:13:46.850Z,62.79
2023-03-27T09:14:53.143Z,61.28
2023-03-27T09:16:02.859Z,61.89
2023-03-27T09:17:12.725Z,62.74
2023-03-27T09:18:18.907Z,65.52
2023-03-27T09:19:20.620Z,64.68
2023-03-27T09:20:40.874Z,65.17
2023-03-27T09:21:45.952Z,66.44
2023-03-27T09:22:57.542Z,64.97
2023-03-27T09:24:29.216Z,62.58
2023-03-27T09:26:00.449Z,63.59
2023-03-27T09:27:33.918Z,63.77
2023-03-27T09:28:59.260Z,63.78
2023-03-27T09:30:12.425Z,62.49
2023-03-27T09:31:24.661Z,63.33
2023-03-27T09:32:25.933Z,63.03
2023-03-27T09:33:27.843Z,63.06
2023-03-27T09:34:30.624Z,64.59
2023-03-27T09:35:32.563Z,63.84
2023-03-27T09:36:34.600Z,61.21
2023-03-27T09:37:36.961Z,60.56
2023-03-27T09:38:41.301Z,61.00
2023-03-27T09:39:50.899Z,60.46
2023-03-27T09:41:07.367Z,60.56
2023-03-27T09:42:13.296Z,60.99
2023-03-27T09:43:18.108Z,61.52
2023-03-27T09:44:30.222Z,62.60
2023-03-27T09:45:36.844Z,61.10
2023-03-27T09:46:42.415Z,59.80
2023-03-27T09:47:45.423Z,60.88
2023-03-27T09:48:57.777Z,59.48
2023-03-27T09:50:17.965Z,59.46
2023-03-27T09:51:44.304Z,58.39
2023-03-27T09:53:10.855Z,57.68
2023-03-27T09:54:21.624Z,59.96
2023-03-27T09:55:30.882Z,59.82
2023-03-27T09:56:38.488Z,59.11
2023-03-27T09:57:40.246Z,60.33
2023-03-27T09:58:46.899Z,58.08
2023-03-27T09:59:56.795Z,58.08
2023-03-27T10:01:06.914Z,57.20
2023-03-27T10:02:18.315Z,55.65
2023-03-27T10:03:19.899Z,56.53
2023-03-27T10:04:28.289Z,56.53
2023-03-27T10:05:33.215Z,56.14
2023-03-27T10:06:37.710Z,58.14
2023-03-27T10:07:47.449Z,59.55
2023-03-27T10:09:13.027Z,61.23
2023-03-27T10:10:15.948Z,58.79
2023-03-27T10:11:39.822Z,58.75
2023-03-27T10:12:46.263Z,58.39
2023-03-27T10:13:48.927Z,55.49
2023-03-27T10:14:53.531Z,56.72
2023-03-27T10:16:04.015Z,56.50
2023-03-27T10:17:24.276Z,58.27
2023-03-27T10:18:33.324Z,59.89
2023-03-27T10:19:45.322Z,58.06
2023-03-27T10:20:50.574Z,57.88
2023-03-27T10:21:52.101Z,57.14
2023-03-27T10:23:02.841Z,57.43
2023-03-27T10:24:17.007Z,55.92
2023-03-27T10:25:39.780Z,55.20
2023-03-27T10:27:00.001Z,54.44
2023-03-27T10:28:18.320Z,53.51
2023-03-27T10:29:40.968Z,53.13
2023-03-27T10:30:56.943Z,55.44
2023-03-27T10:32:05.969Z,57.59
2023-03-27T10:33:31.505Z,56.73
2023-03-27T10:34:57.360Z,56.31
2023-03-27T10:36:17.613Z,54.60
2023-03-27T10:37:29.618Z,54.83
2023-03-27T10:38:55.705Z,56.19
2023-03-27T10:40:39.894Z,55.51
2023-03-27T10:41:47.867Z,53.42
2023-03-27T10:42:49.548Z,53.18
2023-03-27T10:43:51.893Z,53.74
2023-03-27T10:44:56.135Z,54.78
2023-03-27T10:46:01.545Z,56.13
2023-03-27T10:47:05.766Z,56.01
2023-03-27T10:48:07.345Z,56.18
2023-03-27T10:49:28.357Z,55.84
2023-03-27T10:50:30.406Z,56.34
2023-03-27T10:51:47.112Z,56.06
2023-03-27T10:53:16.905Z,55.16
2023-03-27T10:54:46.942Z,56.39
2023-03-27T10:56:01.702Z,54.80
2023-03-27T10:57:15.067Z,55.62
2023-03-27T10:58:25.891Z,53.64
2023-03-27T10:59:41.117Z,52.71
2023-03-27T11:01:00.806Z,52.76
2023-03-27T11:02:29.003Z,52.10
2023-03-27T11:03:48.223Z,51.98
2023-03-27T11:04:55.276Z,52.65
2023-03-27T11:05:58.845Z,52.72
2023-03-27T11:07:16.869Z,52.02
2023-03-27T11:08:21.918Z,52.20
2023-03-27T11:09:26.767Z,51.66
2023-03-27T11:10:33.306Z,52.30
2023-03-27T11:11:36.636Z,51.97
2023-03-27T11:12:39.896Z,51.75
2023-03-27T11:13:43.234Z,51.35
2023-03-27T11:14:44.418Z,50.44
2023-03-27T11:15:53.882Z,52.02
2023-03-27T11:17:41.316Z,51.17
2023-03-27T11:19:07.995Z,51.97
2023-03-27T11:20:20.139Z,52.43
2023-03-27T11:21:54.107Z,50.67
2023-03-27T11:23:03.613Z,50.00
2023-03-27T11:24:33.290Z,50.69
2023-03-27T11:25:45.324Z,51.38
2023-03-27T11:26:57.704Z,49.70
2023-03-27T11:28:03.263Z,50.62
2023-03-27T11:29:26.298Z,50.45
2023-03-27T11:30:47.373Z,50.73
2023-03-27T11:31:50.754Z,52.29
2023-03-27T11:33:41.140Z,51.99
2023-03-27T11:34:50.968Z,51.59
2023-03-27T11:36:29.182Z,51.18
2023-03-27T11:37:37.868Z,50.27
2023-03-27T11:38:44.043Z,50.20
2023-03-27T11:39:52.275Z,50.34
2023-03-27T11:40:54.017Z,50.42
2023-03-27T11:42:02.244Z,51.47
2023-03-27T11:43:03.776Z,51.69
2023-03-27T11:44:05.202Z,51.84
2023-03-27T11:45:47.550Z,50.90
2023-03-27T11:46:57.676Z,49.20
2023-03-27T11:48:11.868Z,49.00
2023-03-27T11:49:25.788Z,49.45
2023-03-27T11:50:35.911Z,48.97
2023-03-27T11:51:57.818Z,49.44
2023-03-27T11:53:20.125Z,48.11
2023-03-27T11:55:04.571Z,48.87
2023-03-27T11:56:05.872Z,46.63
2023-03-27T11:57:18.120Z,46.15
2023-03-27T11:58:29.454Z,49.23
2023-03-27T11:59:37.175Z,47.99
2023-03-27T12:00:56.095Z,49.70
2023-03-27T12:02:15.956Z,49.22
2023-03-27T12:03:25.772Z,48.78
2023-03-27T12:04:35.178Z,48.05
2023-03-27T12:05:58.168Z,48.77
2023-03-27T12:07:12.680Z,49.47
2023-03-27T12:08:26.319Z,49.51
2023-03-27T12:09:43.072Z,50.42
2023-03-27T12:11:24.405Z,50.48
2023-03-27T12:12:35.368Z,50.30
2023-03-27T12:13:49.973Z,49.42
2023-03-27T12:15:02.561Z,48.46
2023-03-27T12:16:15.626Z,49.20
2023-03-27T12:17:51.014Z,49.25
2023-03-27T12:19:26.910Z,48.58
2023-03-27T12:20:52.831Z,49.51
2023-03-27T12:22:22.584Z,50.31
2023-03-27T12:23:36.868Z,48.42
2023-03-27T12:25:23.192Z,48.30
2023-03-27T12:27:21.769Z,48.45
2023-03-27T12:28:41.067Z,48.00
2023-03-27T12:29:59.026Z,47.89
2023-03-27T12:31:00.779Z,46.93
2023-03-27T12:32:20.708Z,47.08
2023-03-27T12:33:36.908Z,47.19
2023-03-27T12:34:54.552Z,47.99
2023-03-27T12:36:01.427Z,48.36
2023-03-27T12:37:04.953Z,49.71
2023-03-27T12:38:07.539Z,48.68
2023-03-27T12:39:12.541Z,49.01
2023-03-27T12:40:25.370Z,48.94
2023-03-27T12:41:26.613Z,47.66
2023-03-27T12:42:49.251Z,48.49
2023-03-27T12:43:59.301Z,47.95
2023-03-27T12:45:14.984Z,48.18
2023-03-27T12:46:25.057Z,48.04
2023-03-27T12:47:29.189Z,49.96
2023-03-27T12:49:02.167Z,49.18
2023-03-27T12:50:13.502Z,48.70
2023-03-27T12:51:18.350Z,49.23
2023-03-27T12:52:24.666Z,50.25
2023-03-27T12:54:13.335Z,51.44
2023-03-27T12:55:18.232Z,50.93
2023-03-27T12:56:42.498Z,52.05
2023-03-27T12:57:49.841Z,51.13
2023-03-27T12:58:57.766Z,52.34
2023-03-27T13:00:01.920Z,51.61
2023-03-27T13:01:08.686Z,52.10
2023-03-27T13:02:45.727Z,51.36
2023-03-27T13:03:59.019Z,51.46
2023-03-27T13:05:13.563Z,51.71
2023-03-27T13:06:29.508Z,52.51
2023-03-27T13:07:34.868Z,53.27
2023-03-27T13:09:07.936Z,53.35
2023-03-27T13:10:20.996Z,54.57
2023-03-27T13:11:42.678Z,54.55
2023-03-27T13:12:45.082Z,54.65
2023-03-27T13:13:52.983Z,55.74
2023-03-27T13:15:00.288Z,56.20
2023-03-27T13:16:26.194Z,56.41
2023-03-27T13:17:45.368Z,58.15
2023-03-27T13:18:56.108Z,59.21
2023-03-27T13:20:09.673Z,61.59
2023-03-27T13:21:20.055Z,63.20
2023-03-27T13:22:25.237Z,64.46
2023-03-27T13:23:45.100Z,67.04
2023-03-27T13:25:05.845Z,68.10
2023-03-27T13:26:15.197Z,70.06
2023-03-27T13:27:18.382Z,72.07
2023-03-27T13:28:19.818Z,73.71
2023-03-27T13:29:33.397Z,75.38
2023-03-27T13:30:44.528Z,76.88
2023-03-27T13:32:30.475Z,77.40
2023-03-27T13:34:11.987Z,79.23
2023-03-27T13:35:19.944Z,79.22
2023-03-27T13:36:21.447Z,79.70
2023-03-27T13:37:36.441Z,78.71
2023-03-27T13:38:51.982Z,79.14
2023-03-27T13:39:54.211Z,80.72
2023-03-27T13:40:55.602Z,79.88
2023-03-27T13:42:05.505Z,78.55
2023-03-27T13:43:24.344Z,78.37
2023-03-27T13:44:38.213Z,78.22
2023-03-27T13:45:47.341Z,77.35
2023-03-27T13:47:33.034Z,76.23
2023-03-27T13:48:52.949Z,76.97
2023-03-27T13:50:14.148Z,79.06
2023-03-27T13:51:27.104Z,79.15
2023-03-27T13:52:28.861Z,78.45
2023-03-27T13:53:38.410Z,78.78
2023-03-27T13:55:15.777Z,79.79
2023-03-27T13:56:47.679Z,79.45
2023-03-27T13:58:05.212Z,81.38
2023-03-27T13:59:22.234Z,81.18
2023-03-27T14:00:47.259Z,83.35
2023-03-27T14:02:01.659Z,85.70
2023-03-27T14:03:20.108Z,85.28
2023-03-27T14:04:26.274Z,85.30
2023-03-27T14:05:46.400Z,86.08
2023-03-27T14:06:59.512Z,80.67
2023-03-27T14:08:27.618Z,82.67
2023-03-27T14:10:19.089Z,80.27
2023-03-27T14:11:49.378Z,80.64
2023-03-27T14:13:09.281Z,80.84
2023-03-27T14:14:30.693Z,80.89
2023-03-27T14:15:38.278Z,77.61
2023-03-27T14:16:56.792Z,78.93
2023-03-27T14:18:21.856Z,79.37
2023-03-27T14:19:33.723Z,77.87
2023-03-27T14:20:47.640Z,79.31
2023-03-27T14:22:00.496Z,76.12
2023-03-27T14:23:07.004Z,75.73
2023-03-27T14:24:46.170Z,76.61
2023-03-27T14:26:10.108Z,76.57
2023-03-27T14:27:20.138Z,77.24
2023-03-27T14:28:28.408Z,77.55
2023-03-27T14:29:32.042Z,77.44
2023-03-27T14:30:41.508Z,78.07
2023-03-27T14:32:06.143Z,77.45
2023-03-27T14:33:09.953Z,77.08
2023-03-27T14:34:12.852Z,76.48
2023-03-27T14:35:38.895Z,78.03
2023-03-27T14:36:42.864Z,77.30
2023-03-27T14:37:55.722Z,78.36
2023-03-27T14:39:24.015Z,78.84
2023-03-27T14:40:35.569Z,76.97
2023-03-27T14:41:53.276Z,76.26
2023-03-27T14:42:55.441Z,76.64
2023-03-27T14:43:58.826Z,75.82
2023-03-27T14:45:20.055Z,75.87
2023-03-27T14:46:23.650Z,75.10
2023-03-27T14:47:26.944Z,74.57
2023-03-27T14:48:28.404Z,75.48
2023-03-27T14:49:34.915Z,75.87